sensor_id;sensor_type;location;lat;lon;timestamp;P1;durP1;ratioP1;P2;durP2;ratioP2
18931;SDS011;9598;50.954;3.112;2024-02-26T00:04:57;2.35;;;2.00;;
18931;SDS011;9598;50.954;3.112;2024-02-26T00:10:01;3.08;;;2.08;;
18931;SDS011;9598;50.954;3.112;2024-02-26T00:15:04;2.00;;;1.80;;
18931;SDS011;9598;50.954;3.112;2024-02-26T00:20:07;4.20;;;1.95;;
18931;SDS011;9598;50.954;3.112;2024-02-26T00:25:12;3.22;;;2.35;;
18931;SDS011;9598;50.954;3.112;2024-02-26T00:30:15;1.88;;;1.65;;
18931;SDS011;9598;50.954;3.112;2024-02-26T00:35:17;1.90;;;1.70;;
18931;SDS011;9598;50.954;3.112;2024-02-26T00:40:22;2.35;;;2.03;;
18931;SDS011;9598;50.954;3.112;2024-02-26T00:45:24;4.35;;;2.00;;
18931;SDS011;9598;50.954;3.112;2024-02-26T00:50:26;2.63;;;2.10;;
18931;SDS011;9598;50.954;3.112;2024-02-26T00:55:30;3.30;;;2.20;;
18931;SDS011;9598;50.954;3.112;2024-02-26T01:00:32;3.03;;;2.03;;
18931;SDS011;9598;50.954;3.112;2024-02-26T01:05:34;2.42;;;2.20;;
18931;SDS011;9598;50.954;3.112;2024-02-26T01:10:39;2.30;;;2.10;;
18931;SDS011;9598;50.954;3.112;2024-02-26T01:15:41;2.83;;;2.63;;
18931;SDS011;9598;50.954;3.112;2024-02-26T01:20:44;2.97;;;2.67;;
18931;SDS011;9598;50.954;3.112;2024-02-26T01:25:48;3.13;;;2.10;;
18931;SDS011;9598;50.954;3.112;2024-02-26T01:30:50;2.80;;;2.10;;
18931;SDS011;9598;50.954;3.112;2024-02-26T01:35:52;4.05;;;2.60;;
18931;SDS011;9598;50.954;3.112;2024-02-26T01:40:56;3.03;;;2.50;;
18931;SDS011;9598;50.954;3.112;2024-02-26T01:45:58;2.53;;;2.33;;
18931;SDS011;9598;50.954;3.112;2024-02-26T01:51:01;2.10;;;1.92;;
18931;SDS011;9598;50.954;3.112;2024-02-26T01:56:04;3.20;;;2.92;;
18931;SDS011;9598;50.954;3.112;2024-02-26T02:01:07;3.90;;;2.70;;
18931;SDS011;9598;50.954;3.112;2024-02-26T02:06:10;2.97;;;2.15;;
18931;SDS011;9598;50.954;3.112;2024-02-26T02:11:14;3.05;;;2.20;;
18931;SDS011;9598;50.954;3.112;2024-02-26T02:16:18;3.00;;;2.65;;
18931;SDS011;9598;50.954;3.112;2024-02-26T02:21:21;4.75;;;2.58;;
18931;SDS011;9598;50.954;3.112;2024-02-26T02:26:23;4.45;;;2.50;;
18931;SDS011;9598;50.954;3.112;2024-02-26T02:31:26;2.47;;;2.08;;
18931;SDS011;9598;50.954;3.112;2024-02-26T02:36:30;2.95;;;2.65;;
18931;SDS011;9598;50.954;3.112;2024-02-26T02:41:32;3.83;;;3.10;;
18931;SDS011;9598;50.954;3.112;2024-02-26T02:46:35;3.30;;;2.95;;
18931;SDS011;9598;50.954;3.112;2024-02-26T02:51:38;3.30;;;3.00;;
18931;SDS011;9598;50.954;3.112;2024-02-26T02:56:40;3.58;;;3.30;;
18931;SDS011;9598;50.954;3.112;2024-02-26T03:01:42;4.05;;;3.17;;
18931;SDS011;9598;50.954;3.112;2024-02-26T03:06:46;2.83;;;2.60;;
18931;SDS011;9598;50.954;3.112;2024-02-26T03:11:49;3.60;;;3.03;;
18931;SDS011;9598;50.954;3.112;2024-02-26T03:16:53;2.80;;;2.60;;
18931;SDS011;9598;50.954;3.112;2024-02-26T03:21:57;3.20;;;2.90;;
18931;SDS011;9598;50.954;3.112;2024-02-26T03:26:59;2.60;;;2.40;;
18931;SDS011;9598;50.954;3.112;2024-02-26T03:32:01;3.30;;;3.00;;
18931;SDS011;9598;50.954;3.112;2024-02-26T03:37:05;2.72;;;2.50;;
18931;SDS011;9598;50.954;3.112;2024-02-26T03:42:07;2.70;;;2.50;;
18931;SDS011;9598;50.954;3.112;2024-02-26T03:47:10;5.03;;;3.72;;
18931;SDS011;9598;50.954;3.112;2024-02-26T03:52:14;5.85;;;5.22;;
18931;SDS011;9598;50.954;3.112;2024-02-26T03:57:16;6.22;;;5.72;;
18931;SDS011;9598;50.954;3.112;2024-02-26T04:02:18;7.20;;;6.70;;
18931;SDS011;9598;50.954;3.112;2024-02-26T04:07:22;6.80;;;6.10;;
18931;SDS011;9598;50.954;3.112;2024-02-26T04:12:24;6.85;;;6.25;;
18931;SDS011;9598;50.954;3.112;2024-02-26T04:17:26;7.78;;;7.07;;
18931;SDS011;9598;50.954;3.112;2024-02-26T04:22:30;8.25;;;7.50;;
18931;SDS011;9598;50.954;3.112;2024-02-26T04:27:32;8.20;;;7.55;;
18931;SDS011;9598;50.954;3.112;2024-02-26T04:32:35;9.02;;;8.23;;
18931;SDS011;9598;50.954;3.112;2024-02-26T04:37:38;8.80;;;8.10;;
18931;SDS011;9598;50.954;3.112;2024-02-26T04:42:41;9.18;;;8.38;;
18931;SDS011;9598;50.954;3.112;2024-02-26T04:47:43;10.13;;;8.77;;
18931;SDS011;9598;50.954;3.112;2024-02-26T04:52:47;9.65;;;8.75;;
18931;SDS011;9598;50.954;3.112;2024-02-26T04:57:49;12.30;;;11.20;;
18931;SDS011;9598;50.954;3.112;2024-02-26T05:02:51;13.90;;;12.60;;
18931;SDS011;9598;50.954;3.112;2024-02-26T05:07:55;13.07;;;11.88;;
18931;SDS011;9598;50.954;3.112;2024-02-26T05:12:57;10.85;;;9.95;;
18931;SDS011;9598;50.954;3.112;2024-02-26T05:18:00;6.65;;;6.05;;
18931;SDS011;9598;50.954;3.112;2024-02-26T05:23:03;7.03;;;6.43;;
18931;SDS011;9598;50.954;3.112;2024-02-26T05:28:06;7.65;;;6.95;;
18931;SDS011;9598;50.954;3.112;2024-02-26T05:33:08;7.35;;;6.50;;
18931;SDS011;9598;50.954;3.112;2024-02-26T05:38:12;6.32;;;5.75;;
18931;SDS011;9598;50.954;3.112;2024-02-26T05:43:14;10.88;;;9.77;;
18931;SDS011;9598;50.954;3.112;2024-02-26T05:48:17;8.80;;;7.95;;
18931;SDS011;9598;50.954;3.112;2024-02-26T05:53:20;7.15;;;6.45;;
18931;SDS011;9598;50.954;3.112;2024-02-26T05:58:23;5.07;;;4.60;;
18931;SDS011;9598;50.954;3.112;2024-02-26T06:03:25;6.07;;;5.55;;
18931;SDS011;9598;50.954;3.112;2024-02-26T06:08:29;5.25;;;4.82;;
18931;SDS011;9598;50.954;3.112;2024-02-26T06:13:31;5.95;;;5.35;;
18931;SDS011;9598;50.954;3.112;2024-02-26T06:18:33;4.85;;;4.45;;
18931;SDS011;9598;50.954;3.112;2024-02-26T06:23:37;6.10;;;5.10;;
18931;SDS011;9598;50.954;3.112;2024-02-26T06:28:39;5.80;;;5.22;;
18931;SDS011;9598;50.954;3.112;2024-02-26T06:33:42;5.55;;;5.15;;
18931;SDS011;9598;50.954;3.112;2024-02-26T06:38:45;6.45;;;5.85;;
18931;SDS011;9598;50.954;3.112;2024-02-26T06:43:47;6.97;;;6.03;;
18931;SDS011;9598;50.954;3.112;2024-02-26T06:48:50;10.27;;;9.30;;
18931;SDS011;9598;50.954;3.112;2024-02-26T06:53:55;12.07;;;9.65;;
18931;SDS011;9598;50.954;3.112;2024-02-26T06:58:57;7.50;;;6.80;;
18931;SDS011;9598;50.954;3.112;2024-02-26T07:03:59;8.95;;;8.05;;
18931;SDS011;9598;50.954;3.112;2024-02-26T07:09:02;7.57;;;6.88;;
18931;SDS011;9598;50.954;3.112;2024-02-26T07:14:05;6.82;;;6.00;;
18931;SDS011;9598;50.954;3.112;2024-02-26T07:19:07;7.97;;;7.18;;
18931;SDS011;9598;50.954;3.112;2024-02-26T07:24:10;7.07;;;6.38;;
18931;SDS011;9598;50.954;3.112;2024-02-26T07:29:13;5.68;;;5.18;;
18931;SDS011;9598;50.954;3.112;2024-02-26T07:34:15;6.15;;;5.15;;
18931;SDS011;9598;50.954;3.112;2024-02-26T07:39:19;6.75;;;6.05;;
18931;SDS011;9598;50.954;3.112;2024-02-26T07:44:21;6.13;;;5.13;;
18931;SDS011;9598;50.954;3.112;2024-02-26T07:49:23;5.05;;;4.65;;
18931;SDS011;9598;50.954;3.112;2024-02-26T07:54:27;3.85;;;3.55;;
18931;SDS011;9598;50.954;3.112;2024-02-26T07:59:29;5.00;;;4.60;;
18931;SDS011;9598;50.954;3.112;2024-02-26T08:04:32;4.78;;;4.35;;
18931;SDS011;9598;50.954;3.112;2024-02-26T08:09:36;5.65;;;4.25;;
18931;SDS011;9598;50.954;3.112;2024-02-26T08:14:38;5.18;;;4.28;;
18931;SDS011;9598;50.954;3.112;2024-02-26T08:19:40;4.22;;;3.67;;
18931;SDS011;9598;50.954;3.112;2024-02-26T08:24:44;3.95;;;3.55;;
18931;SDS011;9598;50.954;3.112;2024-02-26T08:29:52;10.38;;;7.57;;
18931;SDS011;9598;50.954;3.112;2024-02-26T08:34:54;4.63;;;4.05;;
18931;SDS011;9598;50.954;3.112;2024-02-26T08:39:58;4.13;;;3.72;;
18931;SDS011;9598;50.954;3.112;2024-02-26T08:45:00;3.88;;;3.10;;
18931;SDS011;9598;50.954;3.112;2024-02-26T08:50:04;5.13;;;3.88;;
18931;SDS011;9598;50.954;3.112;2024-02-26T08:55:11;3.83;;;3.45;;
18931;SDS011;9598;50.954;3.112;2024-02-26T09:00:14;8.48;;;5.72;;
18931;SDS011;9598;50.954;3.112;2024-02-26T09:05:17;4.38;;;4.00;;
18931;SDS011;9598;50.954;3.112;2024-02-26T09:10:21;4.45;;;4.05;;
18931;SDS011;9598;50.954;3.112;2024-02-26T09:15:24;3.83;;;3.42;;
18931;SDS011;9598;50.954;3.112;2024-02-26T09:20:26;6.85;;;5.50;;
18931;SDS011;9598;50.954;3.112;2024-02-26T09:25:29;6.03;;;5.43;;
18931;SDS011;9598;50.954;3.112;2024-02-26T09:30:32;9.05;;;8.15;;
18931;SDS011;9598;50.954;3.112;2024-02-26T09:35:34;10.18;;;7.20;;
18931;SDS011;9598;50.954;3.112;2024-02-26T09:40:37;15.55;;;13.43;;
18931;SDS011;9598;50.954;3.112;2024-02-26T09:45:41;10.70;;;8.00;;
18931;SDS011;9598;50.954;3.112;2024-02-26T09:50:45;16.63;;;13.00;;
18931;SDS011;9598;50.954;3.112;2024-02-26T09:55:49;16.92;;;13.60;;
18931;SDS011;9598;50.954;3.112;2024-02-26T10:00:53;7.10;;;6.40;;
18931;SDS011;9598;50.954;3.112;2024-02-26T10:05:59;8.85;;;6.43;;
18931;SDS011;9598;50.954;3.112;2024-02-26T10:11:06;9.63;;;7.88;;
18931;SDS011;9598;50.954;3.112;2024-02-26T10:16:09;9.50;;;7.28;;
18931;SDS011;9598;50.954;3.112;2024-02-26T10:21:11;13.32;;;9.48;;
18931;SDS011;9598;50.954;3.112;2024-02-26T10:26:15;9.93;;;8.27;;
18931;SDS011;9598;50.954;3.112;2024-02-26T10:31:19;11.15;;;9.98;;
18931;SDS011;9598;50.954;3.112;2024-02-26T10:36:22;12.70;;;9.20;;
18931;SDS011;9598;50.954;3.112;2024-02-26T10:41:25;11.82;;;10.05;;
18931;SDS011;9598;50.954;3.112;2024-02-26T10:46:29;11.55;;;9.15;;
18931;SDS011;9598;50.954;3.112;2024-02-26T10:51:31;12.07;;;10.07;;
18931;SDS011;9598;50.954;3.112;2024-02-26T10:56:39;8.52;;;7.55;;
18931;SDS011;9598;50.954;3.112;2024-02-26T11:01:43;13.15;;;10.65;;
18931;SDS011;9598;50.954;3.112;2024-02-26T11:06:47;11.45;;;8.93;;
18931;SDS011;9598;50.954;3.112;2024-02-26T11:11:53;10.32;;;8.50;;
18931;SDS011;9598;50.954;3.112;2024-02-26T11:16:55;10.20;;;8.02;;
18931;SDS011;9598;50.954;3.112;2024-02-26T11:21:58;11.65;;;8.50;;
18931;SDS011;9598;50.954;3.112;2024-02-26T11:27:03;10.00;;;9.00;;
18931;SDS011;9598;50.954;3.112;2024-02-26T11:32:07;9.52;;;7.75;;
18931;SDS011;9598;50.954;3.112;2024-02-26T11:37:10;8.50;;;7.70;;
18931;SDS011;9598;50.954;3.112;2024-02-26T11:42:15;8.27;;;7.40;;
18931;SDS011;9598;50.954;3.112;2024-02-26T11:47:18;8.23;;;7.43;;
18931;SDS011;9598;50.954;3.112;2024-02-26T11:52:22;7.00;;;6.30;;
18931;SDS011;9598;50.954;3.112;2024-02-26T11:57:26;7.13;;;5.78;;
18931;SDS011;9598;50.954;3.112;2024-02-26T12:02:44;6.78;;;6.18;;
18931;SDS011;9598;50.954;3.112;2024-02-26T12:07:48;6.97;;;6.28;;
18931;SDS011;9598;50.954;3.112;2024-02-26T12:12:56;7.15;;;6.45;;
18931;SDS011;9598;50.954;3.112;2024-02-26T12:18:02;7.63;;;6.93;;
18931;SDS011;9598;50.954;3.112;2024-02-26T12:23:05;5.68;;;5.18;;
18931;SDS011;9598;50.954;3.112;2024-02-26T12:28:09;5.13;;;4.63;;
18931;SDS011;9598;50.954;3.112;2024-02-26T12:33:12;6.90;;;5.45;;
18931;SDS011;9598;50.954;3.112;2024-02-26T12:38:14;5.13;;;4.63;;
18931;SDS011;9598;50.954;3.112;2024-02-26T12:43:18;4.57;;;4.18;;
18931;SDS011;9598;50.954;3.112;2024-02-26T12:48:21;5.03;;;4.45;;
18931;SDS011;9598;50.954;3.112;2024-02-26T12:53:23;4.53;;;4.13;;
18931;SDS011;9598;50.954;3.112;2024-02-26T12:58:27;5.55;;;5.15;;
18931;SDS011;9598;50.954;3.112;2024-02-26T13:03:31;5.50;;;3.85;;
18931;SDS011;9598;50.954;3.112;2024-02-26T13:08:33;3.53;;;2.97;;
18931;SDS011;9598;50.954;3.112;2024-02-26T13:13:37;3.17;;;2.90;;
18931;SDS011;9598;50.954;3.112;2024-02-26T13:18:39;4.05;;;3.65;;
18931;SDS011;9598;50.954;3.112;2024-02-26T13:23:41;4.13;;;3.83;;
18931;SDS011;9598;50.954;3.112;2024-02-26T13:28:48;5.07;;;3.95;;
18931;SDS011;9598;50.954;3.112;2024-02-26T13:34:01;5.40;;;4.38;;
18931;SDS011;9598;50.954;3.112;2024-02-26T13:39:03;3.60;;;3.30;;
18931;SDS011;9598;50.954;3.112;2024-02-26T13:44:07;3.33;;;3.10;;
18931;SDS011;9598;50.954;3.112;2024-02-26T13:49:09;4.65;;;3.75;;
18931;SDS011;9598;50.954;3.112;2024-02-26T13:54:12;3.58;;;3.17;;
18931;SDS011;9598;50.954;3.112;2024-02-26T13:59:16;4.05;;;3.70;;
18931;SDS011;9598;50.954;3.112;2024-02-26T14:04:18;3.65;;;2.92;;
18931;SDS011;9598;50.954;3.112;2024-02-26T14:09:21;3.42;;;3.00;;
18931;SDS011;9598;50.954;3.112;2024-02-26T14:14:24;5.82;;;3.70;;
18931;SDS011;9598;50.954;3.112;2024-02-26T14:19:26;6.20;;;3.85;;
18931;SDS011;9598;50.954;3.112;2024-02-26T14:24:29;4.35;;;3.85;;
18931;SDS011;9598;50.954;3.112;2024-02-26T14:29:34;3.83;;;3.45;;
18931;SDS011;9598;50.954;3.112;2024-02-26T14:34:40;4.03;;;3.53;;
18931;SDS011;9598;50.954;3.112;2024-02-26T14:39:42;4.80;;;4.40;;
18931;SDS011;9598;50.954;3.112;2024-02-26T14:44:46;4.30;;;3.80;;
18931;SDS011;9598;50.954;3.112;2024-02-26T14:49:48;4.53;;;3.60;;
18931;SDS011;9598;50.954;3.112;2024-02-26T14:54:52;3.92;;;3.63;;
18931;SDS011;9598;50.954;3.112;2024-02-26T14:59:55;5.20;;;4.70;;
18931;SDS011;9598;50.954;3.112;2024-02-26T15:04:57;5.43;;;4.93;;
18931;SDS011;9598;50.954;3.112;2024-02-26T15:09:59;6.70;;;4.75;;
18931;SDS011;9598;50.954;3.112;2024-02-26T15:15:04;4.70;;;4.30;;
18931;SDS011;9598;50.954;3.112;2024-02-26T15:20:08;4.65;;;4.25;;
18931;SDS011;9598;50.954;3.112;2024-02-26T15:25:11;6.18;;;4.22;;
18931;SDS011;9598;50.954;3.112;2024-02-26T15:30:15;4.70;;;4.30;;
18931;SDS011;9598;50.954;3.112;2024-02-26T15:35:17;6.40;;;5.80;;
18931;SDS011;9598;50.954;3.112;2024-02-26T15:40:20;10.05;;;8.52;;
18931;SDS011;9598;50.954;3.112;2024-02-26T15:45:24;8.35;;;7.00;;
18931;SDS011;9598;50.954;3.112;2024-02-26T15:50:26;7.95;;;7.13;;
18931;SDS011;9598;50.954;3.112;2024-02-26T15:55:29;7.32;;;6.65;;
18931;SDS011;9598;50.954;3.112;2024-02-26T16:00:33;7.38;;;5.70;;
18931;SDS011;9598;50.954;3.112;2024-02-26T16:05:35;7.47;;;5.80;;
18931;SDS011;9598;50.954;3.112;2024-02-26T16:10:38;5.30;;;4.78;;
18931;SDS011;9598;50.954;3.112;2024-02-26T16:15:42;4.95;;;4.55;;
18931;SDS011;9598;50.954;3.112;2024-02-26T16:20:48;6.32;;;5.28;;
18931;SDS011;9598;50.954;3.112;2024-02-26T16:25:50;5.80;;;4.82;;
18931;SDS011;9598;50.954;3.112;2024-02-26T16:30:54;5.15;;;4.40;;
18931;SDS011;9598;50.954;3.112;2024-02-26T16:35:57;6.82;;;5.65;;
18931;SDS011;9598;50.954;3.112;2024-02-26T16:40:59;13.80;;;11.52;;
18931;SDS011;9598;50.954;3.112;2024-02-26T16:46:02;10.63;;;9.63;;
18931;SDS011;9598;50.954;3.112;2024-02-26T16:51:05;14.45;;;12.23;;
18931;SDS011;9598;50.954;3.112;2024-02-26T16:56:08;6.15;;;5.63;;
18931;SDS011;9598;50.954;3.112;2024-02-26T17:01:12;7.18;;;6.57;;
18931;SDS011;9598;50.954;3.112;2024-02-26T17:06:14;6.72;;;5.97;;
18931;SDS011;9598;50.954;3.112;2024-02-26T17:11:23;5.72;;;4.72;;
18931;SDS011;9598;50.954;3.112;2024-02-26T17:16:30;6.55;;;4.88;;
18931;SDS011;9598;50.954;3.112;2024-02-26T17:21:32;5.80;;;4.30;;
18931;SDS011;9598;50.954;3.112;2024-02-26T17:26:35;6.18;;;4.55;;
18931;SDS011;9598;50.954;3.112;2024-02-26T17:31:38;8.48;;;4.05;;
18931;SDS011;9598;50.954;3.112;2024-02-26T17:36:42;5.93;;;4.28;;
18931;SDS011;9598;50.954;3.112;2024-02-26T17:41:44;7.57;;;4.20;;
18931;SDS011;9598;50.954;3.112;2024-02-26T17:46:48;5.15;;;4.00;;
18931;SDS011;9598;50.954;3.112;2024-02-26T17:51:51;6.95;;;3.90;;
18931;SDS011;9598;50.954;3.112;2024-02-26T17:56:54;7.55;;;5.28;;
18931;SDS011;9598;50.954;3.112;2024-02-26T18:01:58;7.38;;;4.75;;
18931;SDS011;9598;50.954;3.112;2024-02-26T18:07:00;8.93;;;4.90;;
18931;SDS011;9598;50.954;3.112;2024-02-26T18:12:04;8.32;;;4.55;;
18931;SDS011;9598;50.954;3.112;2024-02-26T18:17:09;13.95;;;6.10;;
18931;SDS011;9598;50.954;3.112;2024-02-26T18:22:11;8.63;;;4.80;;
18931;SDS011;9598;50.954;3.112;2024-02-26T18:27:13;10.05;;;4.47;;
18931;SDS011;9598;50.954;3.112;2024-02-26T18:32:17;8.85;;;4.50;;
18931;SDS011;9598;50.954;3.112;2024-02-26T18:37:19;10.88;;;4.40;;
18931;SDS011;9598;50.954;3.112;2024-02-26T18:42:22;13.05;;;5.45;;
18931;SDS011;9598;50.954;3.112;2024-02-26T18:47:26;7.97;;;4.40;;
18931;SDS011;9598;50.954;3.112;2024-02-26T18:52:28;8.95;;;4.88;;
18931;SDS011;9598;50.954;3.112;2024-02-26T18:57:30;9.77;;;6.45;;
18931;SDS011;9598;50.954;3.112;2024-02-26T19:02:33;8.82;;;5.43;;
18931;SDS011;9598;50.954;3.112;2024-02-26T19:07:36;12.88;;;5.32;;
18931;SDS011;9598;50.954;3.112;2024-02-26T19:12:38;12.90;;;6.20;;
18931;SDS011;9598;50.954;3.112;2024-02-26T19:17:42;8.60;;;4.43;;
18931;SDS011;9598;50.954;3.112;2024-02-26T19:27:47;9.50;;;6.07;;
18931;SDS011;9598;50.954;3.112;2024-02-26T19:32:51;10.70;;;8.05;;
18931;SDS011;9598;50.954;3.112;2024-02-26T19:37:53;9.05;;;6.55;;
18931;SDS011;9598;50.954;3.112;2024-02-26T19:42:55;9.30;;;5.63;;
18931;SDS011;9598;50.954;3.112;2024-02-26T19:47:59;6.40;;;5.75;;
18931;SDS011;9598;50.954;3.112;2024-02-26T19:53:01;11.75;;;7.18;;
18931;SDS011;9598;50.954;3.112;2024-02-26T19:58:04;6.40;;;4.28;;
18931;SDS011;9598;50.954;3.112;2024-02-26T20:03:08;6.32;;;4.72;;
18931;SDS011;9598;50.954;3.112;2024-02-26T20:08:10;9.38;;;4.90;;
18931;SDS011;9598;50.954;3.112;2024-02-26T20:13:12;6.63;;;4.70;;
18931;SDS011;9598;50.954;3.112;2024-02-26T20:18:16;8.75;;;4.68;;
18931;SDS011;9598;50.954;3.112;2024-02-26T20:23:18;11.00;;;6.78;;
18931;SDS011;9598;50.954;3.112;2024-02-26T20:28:21;7.88;;;4.05;;
18931;SDS011;9598;50.954;3.112;2024-02-26T20:33:25;5.95;;;3.47;;
18931;SDS011;9598;50.954;3.112;2024-02-26T20:38:27;7.15;;;3.63;;
18931;SDS011;9598;50.954;3.112;2024-02-26T20:43:29;5.15;;;3.05;;
18931;SDS011;9598;50.954;3.112;2024-02-26T20:48:35;4.60;;;3.10;;
18931;SDS011;9598;50.954;3.112;2024-02-26T20:53:38;5.47;;;3.67;;
18931;SDS011;9598;50.954;3.112;2024-02-26T20:58:41;5.18;;;3.53;;
18931;SDS011;9598;50.954;3.112;2024-02-26T21:03:46;5.57;;;3.67;;
18931;SDS011;9598;50.954;3.112;2024-02-26T21:08:50;5.05;;;3.30;;
18931;SDS011;9598;50.954;3.112;2024-02-26T21:13:54;5.57;;;4.10;;
18931;SDS011;9598;50.954;3.112;2024-02-26T21:18:58;6.20;;;3.80;;
18931;SDS011;9598;50.954;3.112;2024-02-26T21:24:02;6.13;;;2.85;;
18931;SDS011;9598;50.954;3.112;2024-02-26T21:29:05;8.23;;;2.80;;
18931;SDS011;9598;50.954;3.112;2024-02-26T21:34:10;11.90;;;4.57;;
18931;SDS011;9598;50.954;3.112;2024-02-26T21:39:14;8.38;;;3.38;;
18931;SDS011;9598;50.954;3.112;2024-02-26T21:44:16;6.25;;;3.00;;
18931;SDS011;9598;50.954;3.112;2024-02-26T21:49:20;8.25;;;4.05;;
18931;SDS011;9598;50.954;3.112;2024-02-26T21:54:22;10.00;;;3.40;;
18931;SDS011;9598;50.954;3.112;2024-02-26T21:59:27;10.07;;;2.75;;
18931;SDS011;9598;50.954;3.112;2024-02-26T22:04:30;9.43;;;4.22;;
18931;SDS011;9598;50.954;3.112;2024-02-26T22:09:32;9.90;;;4.68;;
18931;SDS011;9598;50.954;3.112;2024-02-26T22:14:34;7.18;;;3.40;;
18931;SDS011;9598;50.954;3.112;2024-02-26T22:19:38;9.05;;;3.33;;
18931;SDS011;9598;50.954;3.112;2024-02-26T22:24:40;6.80;;;3.33;;
18931;SDS011;9598;50.954;3.112;2024-02-26T22:29:42;4.90;;;3.38;;
18931;SDS011;9598;50.954;3.112;2024-02-26T22:34:46;3.85;;;2.45;;
18931;SDS011;9598;50.954;3.112;2024-02-26T22:39:49;6.45;;;2.97;;
18931;SDS011;9598;50.954;3.112;2024-02-26T22:44:51;5.72;;;2.55;;
18931;SDS011;9598;50.954;3.112;2024-02-26T22:49:54;6.75;;;3.55;;
18931;SDS011;9598;50.954;3.112;2024-02-26T22:54:56;6.45;;;2.70;;
18931;SDS011;9598;50.954;3.112;2024-02-26T22:59:58;2.55;;;2.00;;
18931;SDS011;9598;50.954;3.112;2024-02-26T23:05:12;4.18;;;2.17;;
18931;SDS011;9598;50.954;3.112;2024-02-26T23:10:15;4.57;;;2.30;;
18931;SDS011;9598;50.954;3.112;2024-02-26T23:15:18;4.47;;;2.00;;
18931;SDS011;9598;50.954;3.112;2024-02-26T23:20:22;5.97;;;2.10;;
18931;SDS011;9598;50.954;3.112;2024-02-26T23:25:24;2.85;;;2.20;;
18931;SDS011;9598;50.954;3.112;2024-02-26T23:30:27;3.10;;;2.10;;
18931;SDS011;9598;50.954;3.112;2024-02-26T23:35:30;4.68;;;2.45;;
18931;SDS011;9598;50.954;3.112;2024-02-26T23:40:32;4.30;;;2.35;;
18931;SDS011;9598;50.954;3.112;2024-02-26T23:45:35;4.43;;;2.30;;
18931;SDS011;9598;50.954;3.112;2024-02-26T23:50:38;3.13;;;2.15;;
18931;SDS011;9598;50.954;3.112;2024-02-26T23:55:41;3.65;;;2.50;;
